Time;durP1;ratioP1;P1;durP2;ratioP2;P2;SDS_P1;SDS_P2;PMS_P1;PMS_P2;Temp;Humidity;BMP_temperature;BMP_pressure;BME280_temperature;BME280_humidity;BME280_pressure;Samples;Min_cycle;Max_cycle;Signal;HPM_P1;HPM_P2
2022/02/21 00:01:14;;;;;;;0.20;0.10;;;9.30;99.90;;;;;;25330118;23;20192;-74
2022/02/21 00:11:18;;;;;;;0.20;0.03;;;9.30;99.90;;;;;;25303874;23;20179;-73
2022/02/21 00:21:23;;;;;;;0.20;0.10;;;9.20;99.90;;;;;;25328604;23;20198;-73
2022/02/21 00:31:27;;;;;;;0.20;0.10;;;9.20;99.90;;;;;;25329108;23;20219;-74
2022/02/21 00:41:32;;;;;;;0.20;0.10;;;9.20;99.90;;;;;;25328689;23;20188;-75
2022/02/21 00:51:36;;;;;;;0.20;0.10;;;8.90;99.90;;;;;;25302761;23;20188;-75
2022/02/21 01:01:41;;;;;;;0.20;0.10;;;8.80;99.90;;;;;;25302510;23;20211;-75
2022/02/21 01:11:45;;;;;;;0.20;0.10;;;8.60;99.90;;;;;;25300860;23;20183;-75
2022/02/21 01:21:50;;;;;;;0.20;0.10;;;8.10;99.90;;;;;;25301213;23;20206;-74
2022/02/21 01:31:55;;;;;;;0.20;0.10;;;8.30;99.90;;;;;;25300288;23;20204;-73
2022/02/21 01:42:00;;;;;;;0.20;0.10;;;8.10;99.90;;;;;;25326158;23;20188;-73
2022/02/21 01:52:05;;;;;;;0.20;0.00;;;7.90;99.90;;;;;;25302727;23;20179;-74
2022/02/21 02:02:10;;;;;;;0.20;0.10;;;8.40;99.90;;;;;;25325625;23;20326;-73
2022/02/21 02:12:14;;;;;;;0.20;0.10;;;8.70;99.90;;;;;;25300688;23;20167;-73
2022/02/21 02:22:21;;;;;;;0.20;0.10;;;9.50;99.90;;;;;;25326834;23;20196;-73
2022/02/21 02:32:25;;;;;;;0.20;0.10;;;9.70;99.90;;;;;;25325459;23;20200;-74
2022/02/21 02:42:30;;;;;;;0.20;0.10;;;10.00;99.90;;;;;;25324731;23;20192;-75
2022/02/21 02:52:34;;;;;;;0.20;0.10;;;10.00;99.90;;;;;;25324645;23;20179;-75
2022/02/21 03:02:40;;;;;;;0.20;0.03;;;10.20;99.90;;;;;;25324408;23;20203;-75
2022/02/21 03:12:45;;;;;;;0.20;0.10;;;10.00;99.90;;;;;;25299690;23;20251;-76
2022/02/21 03:22:50;;;;;;;0.20;0.10;;;9.80;99.90;;;;;;25299627;23;20211;-75
2022/02/21 03:32:54;;;;;;;0.20;0.10;;;9.30;99.90;;;;;;25274695;23;20200;-74
2022/02/21 03:42:59;;;;;;;0.20;0.10;;;9.10;99.90;;;;;;25325288;23;20199;-73
2022/02/21 03:53:03;;;;;;;0.20;0.07;;;9.10;99.90;;;;;;25331609;23;20160;-73
2022/02/21 04:03:08;;;;;;;0.20;0.10;;;9.70;99.90;;;;;;25305818;23;20199;-75
2022/02/21 04:13:12;;;;;;;0.20;0.00;;;9.60;99.90;;;;;;25330447;23;20179;-75
2022/02/21 04:23:17;;;;;;;0.20;0.00;;;9.10;99.90;;;;;;25329245;23;20188;-68
2022/02/21 04:33:21;;;;;;;0.20;0.00;;;9.20;99.90;;;;;;25328622;23;20215;-69
2022/02/21 04:43:27;;;;;;;2.00;0.57;;;9.40;99.90;;;;;;25278680;23;20202;-74
2022/02/21 04:53:31;;;;;;;0.20;0.10;;;9.50;99.90;;;;;;25302243;23;20180;-74
2022/02/21 05:03:36;;;;;;;0.37;0.37;;;9.30;99.90;;;;;;25301462;23;20192;-75
2022/02/21 05:13:40;;;;;;;0.20;0.10;;;9.30;99.90;;;;;;25326995;23;20164;-77
2022/02/21 05:23:45;;;;;;;0.20;0.10;;;9.20;99.90;;;;;;25326659;23;20188;-68
2022/02/21 05:33:49;;;;;;;0.20;0.10;;;9.20;99.90;;;;;;25325401;23;20200;-67
2022/02/21 05:43:54;;;;;;;0.20;0.10;;;9.30;99.90;;;;;;25299673;23;20192;-68
2022/02/21 05:53:58;;;;;;;0.20;0.10;;;9.40;99.90;;;;;;25324142;23;20184;-69
2022/02/21 06:04:03;;;;;;;0.20;0.10;;;9.30;99.90;;;;;;25322016;23;20202;-68
2022/02/21 06:14:07;;;;;;;0.20;0.00;;;9.10;99.90;;;;;;25273470;23;20168;-66
2022/02/21 06:24:12;;;;;;;0.53;0.53;;;8.70;99.90;;;;;;25320748;23;20191;-64
2022/02/21 06:34:16;;;;;;;0.27;0.27;;;8.60;99.90;;;;;;25294364;23;20226;-66
2022/02/21 06:44:23;;;;;;;0.20;0.20;;;8.90;99.90;;;;;;25292771;23;20263;-66
2022/02/21 06:54:27;;;;;;;0.20;0.10;;;9.10;99.90;;;;;;25291208;23;20172;-73
2022/02/21 07:04:32;;;;;;;0.20;0.03;;;9.10;99.90;;;;;;25312340;23;20188;-73
2022/02/21 07:14:35;;;;;;;0.20;0.10;;;8.90;99.90;;;;;;25310666;23;20179;-68
2022/02/21 07:24:41;;;;;;;0.20;0.10;;;9.20;99.90;;;;;;25326915;23;20199;-74
2022/02/21 07:34:44;;;;;;;0.20;0.10;;;9.30;99.90;;;;;;25301017;23;20204;-73
2022/02/21 07:44:51;;;;;;;0.20;0.10;;;9.60;99.90;;;;;;25323463;23;20184;-73
2022/02/21 07:54:54;;;;;;;0.20;0.10;;;9.90;99.90;;;;;;25323764;23;20173;-72
2022/02/21 08:04:59;;;;;;;0.20;0.10;;;10.10;99.90;;;;;;25297203;23;20270;-73
2022/02/21 08:15:04;;;;;;;0.20;0.10;;;10.50;99.90;;;;;;25322588;23;20161;-71
2022/02/21 08:25:10;;;;;;;0.20;0.10;;;10.90;99.90;;;;;;25320681;23;20192;-67
2022/02/21 08:35:15;;;;;;;0.20;0.10;;;11.10;99.90;;;;;;25297212;23;20200;-66
2022/02/21 08:45:20;;;;;;;0.20;0.10;;;11.40;99.90;;;;;;25322060;23;20192;-65
2022/02/21 08:55:24;;;;;;;0.20;0.20;;;11.70;99.90;;;;;;25322029;23;20172;-66
2022/02/21 09:05:29;;;;;;;0.20;0.10;;;12.00;99.90;;;;;;25322013;23;20192;-74
2022/02/21 09:15:33;;;;;;;0.20;0.10;;;12.30;99.90;;;;;;25320897;23;20172;-73
2022/02/21 09:25:38;;;;;;;0.20;0.00;;;12.70;99.90;;;;;;25320182;23;20203;-73
2022/02/21 09:35:42;;;;;;;0.20;0.10;;;13.10;99.90;;;;;;25310328;23;20204;-72
2022/02/21 09:45:47;;;;;;;0.20;0.10;;;13.70;99.90;;;;;;25282044;23;20203;-72
2022/02/21 09:55:51;;;;;;;0.20;0.00;;;13.90;99.90;;;;;;25279152;23;20173;-74
2022/02/21 10:05:56;;;;;;;0.20;0.00;;;14.30;99.90;;;;;;25307155;23;20184;-73
2022/02/21 10:16:01;;;;;;;0.20;0.00;;;14.70;99.90;;;;;;25303582;23;20179;-77
2022/02/21 10:26:08;;;;;;;0.20;0.00;;;14.80;99.90;;;;;;25276737;23;20188;-73
2022/02/21 10:36:27;;;;;;;0.30;0.30;;;15.30;99.90;;;;;;25302556;23;20195;-72
2022/02/21 10:46:32;;;;;;;0.20;0.10;;;15.50;99.90;;;;;;25276510;23;20191;-66
2022/02/21 10:56:43;;;;;;;0.20;0.10;;;16.40;99.90;;;;;;25313500;23;20164;-73
2022/02/21 11:06:49;;;;;;;0.20;0.03;;;17.20;99.90;;;;;;25319253;23;20195;-73
2022/02/21 11:16:53;;;;;;;0.20;0.00;;;18.50;99.90;;;;;;25318573;23;20186;-74
2022/02/21 11:27:17;;;;;;;0.20;0.00;;;18.50;99.90;;;;;;25319633;23;20196;-76
2022/02/21 11:37:25;;;;;;;0.20;0.00;;;19.10;99.90;;;;;;25292835;23;20204;-76
2022/02/21 11:47:40;;;;;;;0.20;0.10;;;19.10;99.90;;;;;;25316842;23;20200;-82
2022/02/21 11:57:44;;;;;;;0.20;0.00;;;19.60;99.90;;;;;;25294194;23;20201;-79
2022/02/21 12:07:50;;;;;;;0.20;0.13;;;20.30;99.90;;;;;;25285732;23;20200;-74
2022/02/21 12:18:24;;;;;;;0.20;0.00;;;21.20;99.90;;;;;;25282949;23;20173;-76
2022/02/21 12:28:32;;;;;;;0.20;0.00;;;21.70;99.90;;;;;;25310357;23;20207;-75
2022/02/21 12:38:37;;;;;;;0.20;0.00;;;21.90;99.90;;;;;;25310519;23;20196;-73
2022/02/21 12:48:44;;;;;;;0.20;0.00;;;22.50;99.90;;;;;;25286869;23;20514;-73
2022/02/21 12:58:51;;;;;;;0.20;0.00;;;23.50;99.90;;;;;;25311947;23;20240;-66
2022/02/21 13:08:56;;;;;;;0.20;0.00;;;23.30;99.90;;;;;;25313384;23;20191;-66
2022/02/21 13:19:02;;;;;;;0.20;0.10;;;22.00;99.90;;;;;;25311688;23;20172;-66
2022/02/21 13:29:07;;;;;;;0.20;0.20;;;21.00;99.90;;;;;;25307292;23;20192;-64
2022/02/21 13:39:23;;;;;;;0.20;0.10;;;20.90;99.90;;;;;;25302645;23;20227;-65
2022/02/21 13:49:47;;;;;;;0.20;0.10;;;20.50;99.90;;;;;;25310896;23;20195;-67
2022/02/21 14:00:12;;;;;;;0.20;0.00;;;21.20;99.90;;;;;;25308866;23;20184;-65
2022/02/21 14:10:20;;;;;;;0.20;0.00;;;21.80;99.90;;;;;;25307063;23;20187;-68
2022/02/21 14:20:24;;;;;;;0.20;0.00;;;22.90;99.90;;;;;;25283056;23;20648;-66
2022/02/21 14:30:38;;;;;;;0.20;0.10;;;23.20;99.90;;;;;;25280473;23;20199;-66
2022/02/21 14:40:43;;;;;;;0.20;0.10;;;23.10;99.90;;;;;;25320103;23;20168;-66
2022/02/21 14:50:48;;;;;;;0.20;0.00;;;23.70;99.90;;;;;;25316096;23;20192;-68
2022/02/21 15:00:51;;;;;;;0.20;0.10;;;23.70;99.90;;;;;;25304050;23;20153;-66
2022/02/21 15:10:59;;;;;;;0.20;0.00;;;24.00;99.90;;;;;;25304396;23;20216;-65
2022/02/21 15:21:03;;;;;;;0.20;0.10;;;23.70;99.90;;;;;;25306362;23;20172;-65
2022/02/21 15:31:09;;;;;;;0.20;0.00;;;23.80;99.90;;;;;;25304277;23;20259;-66
2022/02/21 15:41:14;;;;;;;0.20;0.10;;;23.60;99.90;;;;;;25308898;23;20175;-66
2022/02/21 15:51:19;;;;;;;0.20;0.00;;;22.20;99.90;;;;;;25287191;23;20184;-66
2022/02/21 16:01:23;;;;;;;0.20;0.00;;;22.10;99.90;;;;;;25311054;23;20168;-68
2022/02/21 16:11:28;;;;;;;0.20;0.00;;;21.90;99.90;;;;;;25309276;23;20195;-79
2022/02/21 16:21:32;;;;;;;0.20;0.10;;;21.10;99.90;;;;;;25309250;23;20168;-76
2022/02/21 16:31:37;;;;;;;0.20;0.00;;;20.30;99.90;;;;;;25283949;23;20210;-72
2022/02/21 16:41:46;;;;;;;0.20;0.10;;;19.80;99.90;;;;;;25310190;23;20179;-74
2022/02/21 16:51:51;;;;;;;0.20;0.10;;;18.80;99.90;;;;;;25283079;23;20192;-76
2022/02/21 17:01:55;;;;;;;0.20;0.10;;;17.90;99.90;;;;;;25310847;23;20164;-75
2022/02/21 17:12:01;;;;;;;0.20;0.10;;;16.40;99.90;;;;;;25314532;23;20192;-76
2022/02/21 17:22:05;;;;;;;0.40;0.40;;;15.90;99.90;;;;;;25313437;23;20172;-80
2022/02/21 17:32:10;;;;;;;0.20;0.00;;;15.30;99.90;;;;;;25311046;23;20408;-64
2022/02/21 17:42:14;;;;;;;0.20;0.00;;;15.20;99.90;;;;;;25309540;23;20168;-64
2022/02/21 17:52:19;;;;;;;0.20;0.10;;;14.80;99.90;;;;;;25308781;23;20191;-65
2022/02/21 18:02:23;;;;;;;0.20;0.00;;;14.80;99.90;;;;;;25310098;23;20183;-70
2022/02/21 18:12:28;;;;;;;0.20;0.10;;;14.60;99.90;;;;;;25287486;23;20192;-67
2022/02/21 18:22:32;;;;;;;0.20;0.10;;;14.30;99.90;;;;;;25296905;23;20183;-69
2022/02/21 18:32:37;;;;;;;0.20;0.00;;;14.20;99.90;;;;;;25322462;23;20196;-68
2022/02/21 18:42:41;;;;;;;0.20;0.10;;;14.20;99.90;;;;;;25297865;23;20168;-69
2022/02/21 18:52:49;;;;;;;0.20;0.10;;;14.00;99.90;;;;;;25297363;23;20188;-68
2022/02/21 19:03:07;;;;;;;0.20;0.10;;;14.00;99.90;;;;;;25317092;23;20172;-65
2022/02/21 19:13:14;;;;;;;0.20;0.10;;;14.00;99.90;;;;;;25320145;23;20161;-64
2022/02/21 19:23:18;;;;;;;0.20;0.10;;;13.70;99.90;;;;;;25325993;23;20168;-65
2022/02/21 19:33:23;;;;;;;0.20;0.10;;;13.70;99.90;;;;;;25299360;23;20231;-65
2022/02/21 19:43:27;;;;;;;0.20;0.03;;;13.60;99.90;;;;;;25326758;23;20172;-64
2022/02/21 19:53:32;;;;;;;0.20;0.10;;;13.60;99.90;;;;;;25327992;23;20171;-63
2022/02/21 20:03:36;;;;;;;0.20;0.10;;;13.50;99.90;;;;;;25301978;23;20784;-64
2022/02/21 20:13:41;;;;;;;0.20;0.00;;;13.50;99.90;;;;;;25325610;23;20183;-65
2022/02/21 20:23:45;;;;;;;0.20;0.00;;;13.50;99.90;;;;;;25324722;23;20180;-65
2022/02/21 20:33:50;;;;;;;0.20;0.10;;;13.40;99.90;;;;;;25325949;23;20200;-66
2022/02/21 20:43:54;;;;;;;0.20;0.00;;;13.20;99.90;;;;;;25326454;23;20195;-65
2022/02/21 20:54:00;;;;;;;0.20;0.10;;;13.10;99.90;;;;;;25326640;23;20168;-64
2022/02/21 21:04:04;;;;;;;0.20;0.10;;;13.00;99.90;;;;;;25326846;23;20188;-65
2022/02/21 21:14:10;;;;;;;0.20;0.00;;;12.90;99.90;;;;;;25326753;23;20169;-76
2022/02/21 21:24:13;;;;;;;0.20;0.10;;;12.90;99.90;;;;;;25325662;23;20195;-63
2022/02/21 21:34:18;;;;;;;0.20;0.10;;;12.80;99.90;;;;;;25324156;23;20196;-64
2022/02/21 21:44:22;;;;;;;0.20;0.10;;;12.80;99.90;;;;;;25323943;23;20215;-63
2022/02/21 21:54:28;;;;;;;0.20;0.10;;;12.80;99.90;;;;;;25299703;23;20243;-64
2022/02/21 22:04:31;;;;;;;0.20;0.10;;;12.70;99.90;;;;;;25322842;23;20199;-64
2022/02/21 22:14:36;;;;;;;0.20;0.10;;;12.70;99.90;;;;;;25298671;23;20176;-64
2022/02/21 22:24:40;;;;;;;0.20;0.10;;;12.20;99.90;;;;;;25322555;23;20188;-64
2022/02/21 22:34:45;;;;;;;0.20;0.10;;;11.80;99.90;;;;;;25321930;23;20204;-64
2022/02/21 22:44:49;;;;;;;0.20;0.10;;;11.60;99.90;;;;;;25322789;23;20236;-63
2022/02/21 22:54:54;;;;;;;0.80;0.80;;;11.60;99.90;;;;;;25297143;23;20178;-64
2022/02/21 23:04:58;;;;;;;0.20;0.10;;;11.30;99.90;;;;;;25298982;23;20192;-65
2022/02/21 23:15:04;;;;;;;0.20;0.10;;;11.00;99.90;;;;;;25302084;23;20230;-64
2022/02/21 23:25:08;;;;;;;0.20;0.10;;;10.90;99.90;;;;;;25327416;23;20195;-63
2022/02/21 23:35:14;;;;;;;0.20;0.10;;;10.90;99.90;;;;;;25326121;23;20203;-64
2022/02/21 23:45:18;;;;;;;0.20;0.10;;;10.90;99.90;;;;;;25301225;23;20196;-64
2022/02/21 23:55:23;;;;;;;0.20;0.10;;;10.80;99.90;;;;;;25326968;23;20165;-63
